createdAt,value
2022-10-29T00:04:59.501Z,70.58
2022-10-29T00:10:03.144Z,70.16
2022-10-29T00:15:07.728Z,70.59
2022-10-29T00:20:13.321Z,70.97
2022-10-29T00:25:16.907Z,71.28
2022-10-29T00:30:20.236Z,71.21
2022-10-29T00:35:26.352Z,71.02
2022-10-29T00:40:29.719Z,70.76
2022-10-29T00:45:33.237Z,71.39
2022-10-29T00:50:38.074Z,70.63
2022-10-29T00:55:41.805Z,70.53
2022-10-29T01:00:45.685Z,70.71
2022-10-29T01:05:51.475Z,70.60
2022-10-29T01:11:04.968Z,70.86
2022-10-29T01:16:17.222Z,71.04
2022-10-29T01:21:39.396Z,70.60
2022-10-29T01:27:20.432Z,70.78
2022-10-29T01:32:31.847Z,70.66
2022-10-29T01:37:43.479Z,70.60
2022-10-29T01:42:52.241Z,70.24
2022-10-29T01:48:02.464Z,70.08
2022-10-29T01:53:07.805Z,70.39
2022-10-29T01:58:13.371Z,70.52
2022-10-29T02:03:31.045Z,70.58
2022-10-29T02:08:45.068Z,70.39
2022-10-29T02:13:56.012Z,70.21
2022-10-29T02:19:01.765Z,70.11
2022-10-29T02:24:05.446Z,70.27
2022-10-29T02:29:08.779Z,70.17
2022-10-29T02:34:13.873Z,70.81
2022-10-29T02:39:17.660Z,70.96
2022-10-29T02:44:20.961Z,71.04
2022-10-29T02:49:25.691Z,71.24
2022-10-29T02:54:28.887Z,70.39
2022-10-29T02:59:32.236Z,70.49
2022-10-29T03:04:39.428Z,70.60
2022-10-29T03:09:43.318Z,70.81
2022-10-29T03:14:46.776Z,70.73
2022-10-29T03:19:51.480Z,70.90
2022-10-29T03:24:54.880Z,71.23
2022-10-29T03:29:58.533Z,70.92
2022-10-29T03:35:03.300Z,70.76
2022-10-29T03:40:06.965Z,70.39
2022-10-29T03:45:11.385Z,70.58
2022-10-29T03:50:16.243Z,71.04
2022-10-29T03:55:19.680Z,71.13
2022-10-29T04:00:23.207Z,71.53
2022-10-29T04:05:28.092Z,71.69
2022-10-29T04:10:31.980Z,71.65
2022-10-29T04:15:35.396Z,71.51
2022-10-29T04:21:05.833Z,71.61
2022-10-29T04:28:17.928Z,71.40
2022-10-29T04:31:29.097Z,71.84
2022-10-29T04:36:33.833Z,71.35
2022-10-29T04:41:37.205Z,71.49
2022-10-29T04:46:40.788Z,71.66
2022-10-29T04:51:45.586Z,72.19
2022-10-29T04:56:51.085Z,71.26
2022-10-29T05:01:54.169Z,72.31
2022-10-29T05:06:58.916Z,71.61
2022-10-29T05:12:02.283Z,71.53
2022-10-29T05:22:15.409Z,72.03
2022-10-29T05:27:18.527Z,72.06
2022-10-29T05:32:21.879Z,71.75
2022-10-29T05:37:28.009Z,71.89
2022-10-29T05:42:31.444Z,71.86
2022-10-29T05:47:34.756Z,72.11
2022-10-29T05:52:39.920Z,71.73
2022-10-29T05:57:43.248Z,71.77
2022-10-29T06:02:46.782Z,71.83
2022-10-29T06:07:57.063Z,71.84
2022-10-29T06:13:00.745Z,71.58
2022-10-29T06:18:04.166Z,71.19
2022-10-29T06:23:08.985Z,70.56
2022-10-29T06:28:15.479Z,70.28
2022-10-29T06:33:19.672Z,70.49
2022-10-29T06:38:24.506Z,70.72
2022-10-29T06:43:27.654Z,70.55
2022-10-29T06:48:31.085Z,70.55
2022-10-29T06:53:35.864Z,70.29
2022-10-29T06:58:38.982Z,69.67
2022-10-29T07:03:42.387Z,70.41
2022-10-29T07:08:47.497Z,69.75
2022-10-29T07:13:50.987Z,70.18
2022-10-29T07:18:55.133Z,70.31
2022-10-29T07:23:59.957Z,70.23
2022-10-29T07:29:03.626Z,70.36
2022-10-29T07:34:06.964Z,70.38
2022-10-29T07:39:11.949Z,70.23
2022-10-29T07:44:15.297Z,70.28
2022-10-29T07:49:18.820Z,70.44
2022-10-29T07:54:23.522Z,70.81
2022-10-29T07:59:27.217Z,71.09
2022-10-29T08:04:30.675Z,71.14
2022-10-29T08:09:35.668Z,70.60
2022-10-29T08:14:39.455Z,70.62
2022-10-29T08:19:42.852Z,70.03
2022-10-29T08:24:47.569Z,70.14
2022-10-29T08:29:51.362Z,70.39
2022-10-29T08:34:56.340Z,70.96
2022-10-29T08:40:01.264Z,71.22
2022-10-29T08:45:25.013Z,71.15
2022-10-29T08:50:31.879Z,71.45
2022-10-29T08:55:39.164Z,70.98
2022-10-29T09:00:43.629Z,71.31
2022-10-29T09:06:04.043Z,71.03
2022-10-29T09:11:25.754Z,71.37
2022-10-29T09:16:44.183Z,71.49
2022-10-29T09:21:57.915Z,71.64
2022-10-29T09:27:10.636Z,72.00
2022-10-29T09:32:22.086Z,71.36
2022-10-29T09:37:37.055Z,70.98
2022-10-29T09:42:42.727Z,70.51
2022-10-29T09:47:55.671Z,71.38
2022-10-29T09:52:59.516Z,71.01
2022-10-29T09:58:05.898Z,71.63
2022-10-29T10:03:16.291Z,71.33
2022-10-29T10:08:20.009Z,71.07
2022-10-29T10:13:27.598Z,71.37
2022-10-29T10:18:41.558Z,70.08
2022-10-29T10:23:47.663Z,70.37
2022-10-29T10:29:06.032Z,70.08
2022-10-29T10:34:15.412Z,70.46
2022-10-29T10:39:27.761Z,70.43
2022-10-29T10:44:33.047Z,70.98
2022-10-29T10:49:38.151Z,70.59
2022-10-29T10:54:45.946Z,70.79
2022-10-29T10:59:57.868Z,71.09
2022-10-29T11:05:08.025Z,71.21
2022-10-29T11:10:14.600Z,71.05
2022-10-29T11:15:31.129Z,71.07
2022-10-29T11:20:37.740Z,71.56
2022-10-29T11:25:45.810Z,71.57
2022-10-29T11:30:56.278Z,71.24
2022-10-29T11:36:04.970Z,70.64
2022-10-29T11:41:20.660Z,71.58
2022-10-29T11:46:35.897Z,71.30
2022-10-29T11:51:52.003Z,71.20
2022-10-29T11:57:00.240Z,71.39
2022-10-29T12:02:24.649Z,71.43
2022-10-29T12:07:43.756Z,71.40
2022-10-29T12:12:52.742Z,71.17
2022-10-29T12:18:10.863Z,71.13
2022-10-29T12:23:25.572Z,71.53
2022-10-29T12:28:40.201Z,71.25
2022-10-29T12:33:53.065Z,71.96
2022-10-29T12:38:58.350Z,72.35
2022-10-29T12:44:10.304Z,72.39
2022-10-29T12:49:24.113Z,72.13
2022-10-29T12:54:35.937Z,72.76
2022-10-29T12:59:40.264Z,72.67
2022-10-29T13:05:16.324Z,72.14
2022-10-29T13:10:49.521Z,72.13
2022-10-29T13:16:02.039Z,72.38
2022-10-29T13:21:07.296Z,72.04
2022-10-29T13:26:11.064Z,72.42
2022-10-29T13:31:45.440Z,72.81
2022-10-29T13:36:50.213Z,72.44
2022-10-29T13:41:54.740Z,73.08
2022-10-29T13:47:01.250Z,72.20
2022-10-29T13:52:22.344Z,73.06
2022-10-29T13:57:31.325Z,72.98
2022-10-29T14:02:49.570Z,72.44
2022-10-29T14:08:00.703Z,72.02
2022-10-29T14:13:13.595Z,73.11
2022-10-29T14:18:22.635Z,72.58
2022-10-29T14:23:28.456Z,72.59
2022-10-29T14:28:32.350Z,72.72
2022-10-29T14:33:37.730Z,72.67
2022-10-29T14:38:45.416Z,72.60
2022-10-29T14:43:57.808Z,73.06
2022-10-29T14:49:06.806Z,72.48
2022-10-29T14:54:24.136Z,72.91
2022-10-29T14:59:30.140Z,72.68
2022-10-29T15:04:34.210Z,72.81
2022-10-29T15:09:39.065Z,72.64
2022-10-29T15:14:47.809Z,72.97
2022-10-29T15:19:55.980Z,72.94
2022-10-29T15:25:03.078Z,72.73
2022-10-29T15:30:09.747Z,72.83
2022-10-29T15:35:21.424Z,72.94
2022-10-29T15:40:27.059Z,73.15
2022-10-29T15:45:30.644Z,73.00
2022-10-29T15:50:41.155Z,72.59
2022-10-29T15:55:46.562Z,72.62
2022-10-29T16:00:50.441Z,72.55
2022-10-29T16:05:57.270Z,72.46
2022-10-29T16:11:05.688Z,73.05
2022-10-29T16:16:14.468Z,72.85
2022-10-29T16:21:20.684Z,72.82
2022-10-29T16:26:27.116Z,72.65
2022-10-29T16:31:31.195Z,72.66
2022-10-29T16:36:34.616Z,72.78
2022-10-29T16:41:39.495Z,73.28
2022-10-29T16:46:42.567Z,73.01
2022-10-29T16:51:46.059Z,73.00
2022-10-29T16:56:52.866Z,72.95
2022-10-29T17:01:56.317Z,73.06
2022-10-29T17:06:59.643Z,73.62
2022-10-29T17:12:04.702Z,73.88
2022-10-29T17:17:08.084Z,73.29
2022-10-29T17:22:15.942Z,73.63
2022-10-29T17:27:20.695Z,73.49
2022-10-29T17:32:24.901Z,72.71
2022-10-29T17:37:29.123Z,73.46
2022-10-29T17:42:33.970Z,73.72
2022-10-29T17:47:37.160Z,74.54
2022-10-29T17:52:40.661Z,74.51
2022-10-29T17:57:45.421Z,74.55
2022-10-29T18:02:50.020Z,74.71
2022-10-29T18:07:53.551Z,74.63
2022-10-29T18:12:59.504Z,73.95
2022-10-29T18:18:04.238Z,74.13
2022-10-29T18:23:07.361Z,73.82
2022-10-29T18:28:12.172Z,74.36
2022-10-29T18:33:15.522Z,74.19
2022-10-29T18:38:18.903Z,74.56
2022-10-29T18:43:24.672Z,74.76
2022-10-29T18:53:32.020Z,74.90
2022-10-29T18:58:36.901Z,75.03
2022-10-29T19:03:40.494Z,75.45
2022-10-29T19:08:45.807Z,75.49
2022-10-29T19:13:54.057Z,75.17
2022-10-29T19:18:58.764Z,75.55
2022-10-29T19:24:02.359Z,75.59
2022-10-29T19:29:08.702Z,75.62
2022-10-29T19:34:12.219Z,75.75
2022-10-29T19:39:16.089Z,75.85
2022-10-29T19:44:20.811Z,75.42
2022-10-29T19:49:24.150Z,75.19
2022-10-29T19:54:27.573Z,75.08
2022-10-29T19:59:32.718Z,75.23
2022-10-29T20:04:36.120Z,74.97
2022-10-29T20:09:39.936Z,74.70
2022-10-29T20:14:44.738Z,74.54
2022-10-29T20:19:47.835Z,74.36
2022-10-29T20:24:51.163Z,74.67
2022-10-29T20:29:55.885Z,74.65
2022-10-29T20:34:59.234Z,74.26
2022-10-29T20:40:02.916Z,74.51
2022-10-29T20:45:09.412Z,74.89
2022-10-29T20:50:12.738Z,74.94
2022-10-29T20:55:16.312Z,75.01
2022-10-29T21:00:21.391Z,75.05
2022-10-29T21:05:24.842Z,74.79
2022-10-29T21:10:28.226Z,74.81
2022-10-29T21:15:35.807Z,75.38
2022-10-29T21:20:39.137Z,75.40
2022-10-29T21:25:42.495Z,74.90
2022-10-29T21:30:47.301Z,75.88
2022-10-29T21:35:52.083Z,75.43
2022-10-29T21:40:55.837Z,75.30
2022-10-29T21:46:00.845Z,75.19
2022-10-29T21:51:06.227Z,75.36
2022-10-29T21:56:12.748Z,75.08
2022-10-29T22:01:18.407Z,75.09
2022-10-29T22:06:23.995Z,75.15
2022-10-29T22:11:28.783Z,75.39
2022-10-29T22:16:33.240Z,76.19
2022-10-29T22:21:36.646Z,75.57
2022-10-29T22:26:40.010Z,75.71
2022-10-29T22:31:44.735Z,75.43
2022-10-29T22:36:48.043Z,74.34
2022-10-29T22:41:51.530Z,75.26
2022-10-29T22:46:56.219Z,74.88
2022-10-29T22:52:01.531Z,74.93
2022-10-29T22:57:05.364Z,74.88
2022-10-29T23:02:10.274Z,75.05
2022-10-29T23:07:13.646Z,74.39
2022-10-29T23:12:17.113Z,74.19
2022-10-29T23:17:21.952Z,74.18
2022-10-29T23:22:27.439Z,73.94
2022-10-29T23:27:31.219Z,74.48
2022-10-29T23:32:35.950Z,74.39
2022-10-29T23:37:39.101Z,74.25
2022-10-29T23:42:42.437Z,74.22
2022-10-29T23:47:47.187Z,74.63
2022-10-29T23:52:50.603Z,74.37
2022-10-29T23:57:54.166Z,74.29
